Observation data for Friona on 02/23/2019      Previous  Date  Next       Current Mesonet Observations  Soil Data  Daily Summary Page  Observations in Plain Language
KFAS 230600Z 15010G15KT 04/04 A297 RMK A01 T00440037  RH  097%=      5-min Rain = 0.02
KFAS 230605Z 16013KT 04/04 A2971 RMK A01 T00440038  RH  097%=      5-min Rain = 0.02
KFAS 230610Z 17013KT 05/04 A2972 RMK A01 T00450039  RH  098%=      5-min Rain = 0.05
KFAS 230615Z 17012KT 04/04 A2971 RMK A01 T00440038  RH  098%=      5-min Rain = 0.03
KFAS 230620Z 16013KT 04/04 A2971 RMK A01 T00440038  RH  098%=      5-min Rain = 0.02
KFAS 230625Z 17010KT 04/04 A2971 RMK A01 T00430038  RH  098%=      5-min Rain = 0.03
KFAS 230630Z 16010KT 04/04 A297 RMK A01 T00430038  RH  098%=      5-min Rain = 0.03
KFAS 230635Z 15010KT 04/04 A297 RMK A01 T00430038  RH  098%=      5-min Rain = 0.02
KFAS 230640Z 14012KT 04/04 A297 RMK A01 T00440040  RH  099%=      5-min Rain = 0.01
KFAS 230645Z 15013KT 05/04 A2969 RMK A01 T00460042  RH  099%=      5-min Rain = 0
KFAS 230650Z 15013G19KT 05/04 A2968 RMK A01 T00470042  RH  099%=      5-min Rain = 0
KFAS 230655Z 14013KT 05/04 A2967 RMK A01 T00480043  RH  099%=      5-min Rain = 0
KFAS 230700Z 14013G18KT 05/04 A2967 RMK A01 T00480044  RH  099%=      5-min Rain = 0
KFAS 230705Z 15012KT 05/04 A2966 RMK A01 T00490044  RH  099%=      5-min Rain = 0.01
KFAS 230710Z 15015KT 05/04 A2966 RMK A01 T00490044  RH  099%=      5-min Rain = 0
KFAS 230715Z 15015KT 05/04 A2966 RMK A01 T00480043  RH  099%=      5-min Rain = 0
KFAS 230720Z 14016G21KT 05/04 A2966 RMK A01 T00470042  RH  099%=      5-min Rain = 0
KFAS 230725Z 14015KT 05/04 A2966 RMK A01 T00450040  RH  099%=      5-min Rain = 0
KFAS 230730Z 14016G21KT 04/04 A2966 RMK A01 T00440039  RH  098%=      5-min Rain = 0
KFAS 230735Z 16015G22KT 04/04 A2969 RMK A01 T00430038  RH  098%=      5-min Rain = 0.01
KFAS 230740Z 26016G22KT 04/03 A2973 RMK A01 T00400034  RH  098%=      5-min Rain = 0.04
KFAS 230745Z 28017G24KT 02/01 A2973 RMK A01 T00220014  RH  096%=      5-min Rain = 0.02
KFAS 230750Z 28014G20KT 02/01 A2973 RMK A01 T00150008  RH  096%=      5-min Rain = 0.01
KFAS 230755Z 28013G18KT 01/01 A2973 RMK A01 T00130007  RH  097%=      5-min Rain = 0.02
KFAS 230800Z 28015G20KT 01/01 A2972 RMK A01 T00110006  RH  098%=      5-min Rain = 0.02
KFAS 230805Z 28012KT 01/00 A2972 RMK A01 T00090004  RH  098%=      5-min Rain = 0.02
KFAS 230810Z 28009KT 01/00 A2971 RMK A01 T00080004  RH  098%=      5-min Rain = 0.01
KFAS 230815Z 28009KT 01/01 A2971 RMK A01 T00090005  RH  098%=      5-min Rain = 0.01
KFAS 230820Z 28008KT 01/01 A2971 RMK A01 T00110007  RH  099%=      5-min Rain = 0.01
KFAS 230825Z 28006KT 01/01 A297 RMK A01 T00120008  RH  099%=      5-min Rain = 0
KFAS 230830Z 30005KT 01/01 A2969 RMK A01 T00120009  RH  099%=      5-min Rain = 0
KFAS 230835Z 28005KT 01/01 A2969 RMK A01 T00130009  RH  099%=      5-min Rain = 0
KFAS 230840Z 27005KT 01/01 A2969 RMK A01 T00140010  RH  099%=      5-min Rain = 0
KFAS 230845Z 25005KT 01/01 A2969 RMK A01 T00140010  RH  099%=      5-min Rain = 0
KFAS 230850Z 25003KT 01/01 A2968 RMK A01 T00140011  RH  099%=      5-min Rain = 0
KFAS 230855Z 24003KT 02/01 A2968 RMK A01 T00150011  RH  099%=      5-min Rain = 0
KFAS 230900Z 23003KT 02/01 A2967 RMK A01 T00150011  RH  099%=      5-min Rain = 0
KFAS 230905Z 23003KT 02/01 A2967 RMK A01 T00150011  RH  099%=      5-min Rain = 0
KFAS 230910Z 23003KT 01/01 A2967 RMK A01 T00140010  RH  099%=      5-min Rain = 0
KFAS 230915Z 23001KT 01/01 A2966 RMK A01 T00140010  RH  099%=      5-min Rain = 0
KFAS 230920Z 25000KT 01/01 A2965 RMK A01 T00140010  RH  099%=      5-min Rain = 0
KFAS 230925Z 21002KT 01/01 A2965 RMK A01 T00140011  RH  099%=      5-min Rain = 0
KFAS 230930Z 20004KT 01/01 A2966 RMK A01 T00130009  RH  099%=      5-min Rain = 0
KFAS 230935Z 20005KT 01/01 A2965 RMK A01 T00130009  RH  099%=      5-min Rain = 0
KFAS 230940Z 20005KT 01/01 A2966 RMK A01 T00140011  RH  099%=      5-min Rain = 0
KFAS 230945Z 20006KT 02/01 A2965 RMK A01 T00150012  RH  099%=      5-min Rain = 0.01
KFAS 230950Z 22008KT 02/01 A2965 RMK A01 T00160013  RH  099%=      5-min Rain = 0
KFAS 230955Z 22008KT 02/01 A2965 RMK A01 T00160013  RH  099%=      5-min Rain = 0
KFAS 231000Z 21009KT 02/01 A2965 RMK A01 T00170014  RH  099%=      5-min Rain = 0
KFAS 231005Z 21008KT 02/01 A2965 RMK A01 T00180014  RH  099%=      5-min Rain = 0
KFAS 231010Z 22008KT 02/01 A2965 RMK A01 T00180014  RH  099%=      5-min Rain = 0
KFAS 231015Z 23013G28KT 02/02 A2965 RMK A01 T00190015  RH  099%=      5-min Rain = 0
KFAS 231020Z 24023G33KT 02/01 A2965 RMK A01 T00180014  RH  098%=      5-min Rain = 0
KFAS 231025Z 25020G26KT 02/01 A2965 RMK A01 T00170011  RH  097%=      5-min Rain = 0
KFAS 231030Z 24018G25KT 02/01 A2964 RMK A01 T00170009  RH  096%=      5-min Rain = 0
KFAS 231035Z 25020G28KT 02/01 A2964 RMK A01 T00160006  RH  095%=      5-min Rain = 0
KFAS 231040Z 25022G33KT 01/00 A2964 RMK A01 T00140002  RH  093%=      5-min Rain = 0
KFAS 231045Z 26020G26KT 01/M00 A2963 RMK A01 T00131001  RH  091%=      5-min Rain = 0
KFAS 231050Z 26018G25KT 01/M00 A2963 RMK A01 T00141002  RH  090%=      5-min Rain = 0
KFAS 231055Z 25018KT 01/M00 A2963 RMK A01 T00141002  RH  090%=      5-min Rain = 0
KFAS 231100Z 25018G25KT 01/M00 A2963 RMK A01 T00141003  RH  090%=      5-min Rain = 0
KFAS 231105Z 24017G23KT 01/M01 A2963 RMK A01 T00141005  RH  089%=      5-min Rain = 0
KFAS 231110Z 24016G22KT 01/M01 A2963 RMK A01 T00141006  RH  088%=      5-min Rain = 0
KFAS 231115Z 24021G29KT 01/M01 A2963 RMK A01 T00131008  RH  087%=      5-min Rain = 0
KFAS 231120Z 24022G28KT 01/M01 A2963 RMK A01 T00141013  RH  083%=      5-min Rain = 0
KFAS 231125Z 24021G27KT 01/M02 A2963 RMK A01 T00131016  RH  082%=      5-min Rain = 0
KFAS 231130Z 24021G27KT 01/M02 A2963 RMK A01 T00121015  RH  083%=      5-min Rain = 0
KFAS 231135Z 24019G26KT 01/M02 A2963 RMK A01 T00111016  RH  083%=      5-min Rain = 0
KFAS 231140Z 24021G28KT 01/M02 A2963 RMK A01 T00101018  RH  082%=      5-min Rain = 0
KFAS 231145Z 24019G25KT 01/M02 A2963 RMK A01 T00091019  RH  083%=      5-min Rain = 0
KFAS 231150Z 24021G26KT 01/M02 A2963 RMK A01 T00071022  RH  082%=      5-min Rain = 0
KFAS 231155Z 24020KT 01/M02 A2963 RMK A01 T00071024  RH  081%=      5-min Rain = 0
KFAS 231200Z 24020G26KT 01/M03 A2962 RMK A01 T00061025  RH  080%=      5-min Rain = 0
KFAS 231205Z 24023G28KT 01/M03 A2962 RMK A01 T00051027  RH  079%=      5-min Rain = 0
KFAS 231210Z 24023G29KT 01/M03 A2962 RMK A01 T00051031  RH  078%=      5-min Rain = 0
KFAS 231215Z 24020G27KT 00/M03 A2962 RMK A01 T00041032  RH  077%=      5-min Rain = 0
KFAS 231220Z 25020G27KT 00/M03 A2962 RMK A01 T00031033  RH  077%=      5-min Rain = 0
KFAS 231225Z 25020G26KT 00/M03 A2963 RMK A01 T00021034  RH  077%=      5-min Rain = 0
KFAS 231230Z 25022G28KT 00/M04 A2963 RMK A01 T00021035  RH  076%=      5-min Rain = 0
KFAS 231235Z 25023G29KT 00/M04 A2962 RMK A01 T00021037  RH  075%=      5-min Rain = 0
KFAS 231240Z 25023G29KT 00/M04 A2962 RMK A01 T00021037  RH  075%=      5-min Rain = 0
KFAS 231245Z 25023G29KT 00/M04 A2962 RMK A01 T00021038  RH  075%=      5-min Rain = 0
KFAS 231250Z 24021G28KT 00/M04 A2961 RMK A01 T00011039  RH  075%=      5-min Rain = 0
KFAS 231255Z 24022G29KT 00/M04 A2961 RMK A01 T00011039  RH  075%=      5-min Rain = 0
KFAS 231300Z 24025G36KT 00/04 A296 RMK A01 T00000-41  RH  074%=      5-min Rain = 0
KFAS 231305Z 24025G33KT 00/04 A2961 RMK A01 T00000-41  RH  074%=      5-min Rain = 0
KFAS 231310Z 24024G34KT 00/04 A2961 RMK A01 T00-00-42  RH  074%=      5-min Rain = 0
KFAS 231315Z 24027G33KT 00/M04 A2961 RMK A01 T00011043  RH  073%=      5-min Rain = 0
KFAS 231320Z 24026G35KT 00/04 A2961 RMK A01 T00000-42  RH  073%=      5-min Rain = 0
KFAS 231325Z 24025G33KT 00/M04 A2961 RMK A01 T00011042  RH  073%=      5-min Rain = 0
KFAS 231330Z 24022G28KT 00/M04 A2961 RMK A01 T00011041  RH  074%=      5-min Rain = 0
KFAS 231335Z 24021G28KT 00/04 A2961 RMK A01 T00000-41  RH  074%=      5-min Rain = 0
KFAS 231340Z 24025G32KT 00/M04 A2961 RMK A01 T00021040  RH  074%=      5-min Rain = 0
KFAS 231345Z 24025G35KT 00/M04 A296 RMK A01 T00041038  RH  074%=      5-min Rain = 0
KFAS 231350Z 24027G32KT 01/M04 A296 RMK A01 T00051038  RH  073%=      5-min Rain = 0
KFAS 231355Z 25028G35KT 01/M04 A296 RMK A01 T00061038  RH  073%=      5-min Rain = 0
KFAS 231400Z 24025G35KT 01/M04 A296 RMK A01 T00051038  RH  073%=      5-min Rain = 0
KFAS 231405Z 24026G39KT 01/M04 A296 RMK A01 T00051038  RH  074%=      5-min Rain = 0
KFAS 231410Z 25028G35KT 01/M04 A296 RMK A01 T00061036  RH  074%=      5-min Rain = 0
KFAS 231415Z 25028G36KT 01/M04 A296 RMK A01 T00081036  RH  073%=      5-min Rain = 0
KFAS 231420Z 25028G37KT 01/M03 A296 RMK A01 T00101034  RH  073%=      5-min Rain = 0
KFAS 231425Z 26030G38KT 01/M04 A296 RMK A01 T00121035  RH  072%=      5-min Rain = 0
KFAS 231430Z 26029G38KT 01/M03 A296 RMK A01 T00131033  RH  071%=      5-min Rain = 0
KFAS 231435Z 26031G41KT 02/M03 A296 RMK A01 T00151034  RH  071%=      5-min Rain = 0
KFAS 231440Z 26029G37KT 02/M03 A2961 RMK A01 T00161033  RH  071%=      5-min Rain = 0
KFAS 231445Z 26027G35KT 02/M03 A2961 RMK A01 T00171031  RH  071%=      5-min Rain = 0
KFAS 231450Z 26027G36KT 02/M03 A2962 RMK A01 T00181031  RH  070%=      5-min Rain = 0
KFAS 231455Z 26028G38KT 02/M03 A2962 RMK A01 T00201030  RH  070%=      5-min Rain = 0
KFAS 231500Z 27030G37KT 02/M03 A2962 RMK A01 T00211031  RH  069%=      5-min Rain = 0
KFAS 231505Z 27028G37KT 02/M03 A2962 RMK A01 T00231029  RH  069%=      5-min Rain = 0
KFAS 231510Z 27026G34KT 03/M03 A2963 RMK A01 T00261026  RH  069%=      5-min Rain = 0
KFAS 231515Z 27028G36KT 03/M03 A2963 RMK A01 T00281025  RH  068%=      5-min Rain = 0
KFAS 231520Z 28030G36KT 03/M03 A2964 RMK A01 T00291025  RH  068%=      5-min Rain = 0
KFAS 231525Z 29032G42KT 03/M02 A2965 RMK A01 T00331019  RH  069%=      5-min Rain = 0
KFAS 231530Z 29031G41KT 03/M02 A2965 RMK A01 T00331016  RH  071%=      5-min Rain = 0
KFAS 231535Z 29031G39KT 03/M01 A2965 RMK A01 T00311013  RH  073%=      5-min Rain = 0
KFAS 231540Z 30032G38KT 03/M01 A2966 RMK A01 T00291014  RH  074%=      5-min Rain = 0
KFAS 231545Z 29029G41KT 03/M01 A2966 RMK A01 T00281014  RH  075%=      5-min Rain = 0
KFAS 231550Z 29031G40KT 03/M01 A2966 RMK A01 T00311013  RH  074%=      5-min Rain = 0
KFAS 231555Z 29031G41KT 04/M01 A2967 RMK A01 T00391011  RH  071%=      5-min Rain = 0
KFAS 231600Z 29031G40KT 04/M01 A2967 RMK A01 T00441012  RH  068%=      5-min Rain = 0
KFAS 231605Z 29032G45KT 05/M01 A2968 RMK A01 T00451011  RH  067%=      5-min Rain = 0
KFAS 231610Z 29034G46KT 04/M01 A2969 RMK A01 T00411011  RH  069%=      5-min Rain = 0
KFAS 231615Z 29031G41KT 04/M01 A297 RMK A01 T00411008  RH  071%=      5-min Rain = 0
KFAS 231620Z 30035G41KT 04/M01 A2971 RMK A01 T00411007  RH  071%=      5-min Rain = 0
KFAS 231625Z 29032G41KT 04/M01 A2972 RMK A01 T00421007  RH  071%=      5-min Rain = 0
KFAS 231630Z 30027G39KT 05/M00 A2973 RMK A01 T00471002  RH  072%=      5-min Rain = 0
KFAS 231635Z 30028G36KT 05/M01 A2973 RMK A01 T00491005  RH  069%=      5-min Rain = 0
KFAS 231640Z 30026G35KT 05/M01 A2974 RMK A01 T00511008  RH  067%=      5-min Rain = 0
KFAS 231645Z 31033G40KT 05/M02 A2975 RMK A01 T00501016  RH  063%=      5-min Rain = 0
KFAS 231650Z 31028G38KT 05/M02 A2976 RMK A01 T00461015  RH  065%=      5-min Rain = 0
KFAS 231655Z 32024G35KT 04/M01 A2977 RMK A01 T00441009  RH  069%=      5-min Rain = 0
KFAS 231700Z 32032G45KT 04/M01 A2977 RMK A01 T00391014  RH  069%=      5-min Rain = 0
KFAS 231705Z 31033G44KT 04/M02 A2978 RMK A01 T00361022  RH  067%=      5-min Rain = 0
KFAS 231710Z 31033G42KT 04/M02 A2979 RMK A01 T00371021  RH  066%=      5-min Rain = 0
KFAS 231715Z 32034G42KT 03/M02 A298 RMK A01 T00331020  RH  068%=      5-min Rain = 0
KFAS 231720Z 32033G41KT 04/M02 A298 RMK A01 T00351019  RH  068%=      5-min Rain = 0
KFAS 231725Z 32031G40KT 03/M02 A2981 RMK A01 T00341019  RH  069%=      5-min Rain = 0
KFAS 231730Z 31028G41KT 03/M02 A2982 RMK A01 T00311018  RH  071%=      5-min Rain = 0
KFAS 231735Z 31030G38KT 03/M02 A2983 RMK A01 T00301019  RH  070%=      5-min Rain = 0
KFAS 231740Z 32029G40KT 03/M02 A2984 RMK A01 T00311019  RH  071%=      5-min Rain = 0
KFAS 231745Z 32027G35KT 03/M02 A2984 RMK A01 T00341019  RH  069%=      5-min Rain = 0
KFAS 231750Z 32027G34KT 04/M02 A2985 RMK A01 T00361019  RH  068%=      5-min Rain = 0
KFAS 231755Z 32026G34KT 04/M02 A2985 RMK A01 T00361021  RH  067%=      5-min Rain = 0
KFAS 231800Z 32025G31KT 04/M02 A2986 RMK A01 T00381020  RH  066%=      5-min Rain = 0
KFAS 231805Z 32027G36KT 04/M02 A2986 RMK A01 T00411021  RH  064%=      5-min Rain = 0
KFAS 231810Z 32025G34KT 04/M02 A2987 RMK A01 T00441022  RH  063%=      5-min Rain = 0
KFAS 231815Z 32027G33KT 05/M02 A2986 RMK A01 T00491021  RH  061%=      5-min Rain = 0
KFAS 231820Z 32026G34KT 06/M02 A2986 RMK A01 T00551021  RH  059%=      5-min Rain = 0
KFAS 231825Z 32025G35KT 06/M02 A2986 RMK A01 T00601021  RH  056%=      5-min Rain = 0
KFAS 231830Z 32027G34KT 06/M03 A2987 RMK A01 T00581026  RH  055%=      5-min Rain = 0
KFAS 231835Z 33026G31KT 06/M03 A2987 RMK A01 T00571025  RH  056%=      5-min Rain = 0
KFAS 231840Z 32023G31KT 06/M02 A2987 RMK A01 T00611024  RH  055%=      5-min Rain = 0
KFAS 231845Z 32028G34KT 06/M03 A2987 RMK A01 T00591028  RH  054%=      5-min Rain = 0
KFAS 231850Z 32024G32KT 06/M02 A2988 RMK A01 T00611024  RH  055%=      5-min Rain = 0
KFAS 231855Z 33028G34KT 06/M03 A2989 RMK A01 T00611027  RH  054%=      5-min Rain = 0
KFAS 231900Z 33026G33KT 06/M03 A2989 RMK A01 T00591030  RH  053%=      5-min Rain = 0
KFAS 231905Z 33026G33KT 06/M03 A2989 RMK A01 T00581028  RH  054%=      5-min Rain = 0
KFAS 231910Z 33024G29KT 06/M03 A2989 RMK A01 T00601028  RH  054%=      5-min Rain = 0
KFAS 231915Z 33023G29KT 06/M03 A299 RMK A01 T00621027  RH  053%=      5-min Rain = 0
KFAS 231920Z 33020G28KT 07/M02 A299 RMK A01 T00661024  RH  053%=      5-min Rain = 0
KFAS 231925Z 33024G29KT 06/M03 A299 RMK A01 T00641028  RH  052%=      5-min Rain = 0
KFAS 231930Z 33024G30KT 07/M03 A299 RMK A01 T00661030  RH  051%=      5-min Rain = 0
KFAS 231935Z 32023G30KT 07/M03 A299 RMK A01 T00651030  RH  051%=      5-min Rain = 0
KFAS 231940Z 32021G28KT 07/M03 A299 RMK A01 T00681029  RH  050%=      5-min Rain = 0
KFAS 231945Z 33023G30KT 07/M03 A299 RMK A01 T00701030  RH  049%=      5-min Rain = 0
KFAS 231950Z 33023G32KT 07/M03 A299 RMK A01 T00681030  RH  050%=      5-min Rain = 0
KFAS 231955Z 33026G33KT 07/M03 A299 RMK A01 T00681033  RH  049%=      5-min Rain = 0
KFAS 232000Z 33024G32KT 07/M03 A299 RMK A01 T00671030  RH  050%=      5-min Rain = 0
KFAS 232005Z 33024G31KT 07/M03 A299 RMK A01 T00731027  RH  049%=      5-min Rain = 0
KFAS 232010Z 33023G32KT 07/M03 A2991 RMK A01 T00731029  RH  049%=      5-min Rain = 0
KFAS 232015Z 33024G31KT 07/M03 A2991 RMK A01 T00721029  RH  049%=      5-min Rain = 0
KFAS 232020Z 33024G30KT 07/M03 A2991 RMK A01 T00731030  RH  048%=      5-min Rain = 0
KFAS 232025Z 32021G29KT 08/M03 A2991 RMK A01 T00751030  RH  048%=      5-min Rain = 0
KFAS 232030Z 32021G27KT 08/M03 A2991 RMK A01 T00781030  RH  047%=      5-min Rain = 0
KFAS 232035Z 33021G26KT 08/M03 A2992 RMK A01 T00791028  RH  047%=      5-min Rain = 0
KFAS 232040Z 32020G29KT 08/M03 A2992 RMK A01 T00811028  RH  046%=      5-min Rain = 0
KFAS 232045Z 32023G32KT 08/M03 A2992 RMK A01 T00791034  RH  045%=      5-min Rain = 0
KFAS 232050Z 33023G31KT 08/M03 A2992 RMK A01 T00801033  RH  045%=      5-min Rain = 0
KFAS 232055Z 33022G28KT 08/M03 A2992 RMK A01 T00791033  RH  045%=      5-min Rain = 0
KFAS 232100Z 32022G30KT 08/M04 A2993 RMK A01 T00781037  RH  044%=      5-min Rain = 0
KFAS 232105Z 33022G28KT 08/M04 A2993 RMK A01 T00791036  RH  044%=      5-min Rain = 0
KFAS 232110Z 33024G29KT 08/M04 A2994 RMK A01 T00791038  RH  044%=      5-min Rain = 0
KFAS 232115Z 33020G28KT 08/M04 A2994 RMK A01 T00791039  RH  043%=      5-min Rain = 0
KFAS 232120Z 33019G26KT 08/M04 A2995 RMK A01 T00811037  RH  043%=      5-min Rain = 0
KFAS 232125Z 33018KT 08/M04 A2995 RMK A01 T00831037  RH  043%=      5-min Rain = 0
KFAS 232130Z 33017G25KT 08/M04 A2995 RMK A01 T00811038  RH  043%=      5-min Rain = 0
KFAS 232135Z 33015G20KT 08/M04 A2996 RMK A01 T00841037  RH  042%=      5-min Rain = 0
KFAS 232140Z 33017G22KT 09/M04 A2996 RMK A01 T00851038  RH  042%=      5-min Rain = 0
KFAS 232145Z 33016G21KT 08/M04 A2997 RMK A01 T00831040  RH  042%=      5-min Rain = 0
KFAS 232150Z 32015KT 09/M04 A2997 RMK A01 T00871037  RH  042%=      5-min Rain = 0
KFAS 232155Z 32012G17KT 09/M04 A2997 RMK A01 T00861035  RH  043%=      5-min Rain = 0
KFAS 232200Z 30013G18KT 09/M03 A2998 RMK A01 T00881033  RH  043%=      5-min Rain = 0
KFAS 232205Z 32014KT 09/M04 A2998 RMK A01 T00891035  RH  042%=      5-min Rain = 0
KFAS 232210Z 32016KT 09/M04 A2998 RMK A01 T00901037  RH  041%=      5-min Rain = 0
KFAS 232215Z 33015G21KT 09/M04 A2999 RMK A01 T00891039  RH  040%=      5-min Rain = 0
KFAS 232220Z 32016KT 09/M04 A2999 RMK A01 T00881041  RH  040%=      5-min Rain = 0
KFAS 232225Z 32014G19KT 09/M05 A2999 RMK A01 T00881046  RH  038%=      5-min Rain = 0
KFAS 232230Z 33014G20KT 09/M05 A2999 RMK A01 T00881046  RH  039%=      5-min Rain = 0
KFAS 232235Z 34012KT 09/M04 A2998 RMK A01 T00881044  RH  039%=      5-min Rain = 0
KFAS 232240Z 33014KT 09/M05 A2998 RMK A01 T00881045  RH  039%=      5-min Rain = 0
KFAS 232245Z 34013G18KT 09/M05 A2998 RMK A01 T00871047  RH  038%=      5-min Rain = 0
KFAS 232250Z 34012KT 09/M05 A2999 RMK A01 T00871049  RH  038%=      5-min Rain = 0
KFAS 232255Z 34014G21KT 09/M05 A2999 RMK A01 T00871046  RH  039%=      5-min Rain = 0
KFAS 232300Z 34013KT 09/M05 A2998 RMK A01 T00881048  RH  038%=      5-min Rain = 0
KFAS 232305Z 34013KT 09/M05 A2999 RMK A01 T00871048  RH  038%=      5-min Rain = 0
KFAS 232310Z 35011G16KT 09/M05 A2999 RMK A01 T00861050  RH  038%=      5-min Rain = 0
KFAS 232315Z 35013KT 09/M05 A2999 RMK A01 T00861049  RH  038%=      5-min Rain = 0
KFAS 232320Z 35011KT 09/M05 A30 RMK A01 T00851050  RH  038%=      5-min Rain = 0
KFAS 232325Z 35012KT 08/M05 A30 RMK A01 T00841050  RH  038%=      5-min Rain = 0
KFAS 232330Z 34012KT 08/M05 A30 RMK A01 T00831051  RH  038%=      5-min Rain = 0
KFAS 232335Z 34010KT 08/M05 A30 RMK A01 T00821051  RH  039%=      5-min Rain = 0
KFAS 232340Z 34010KT 08/M05 A30 RMK A01 T00821051  RH  039%=      5-min Rain = 0
KFAS 232345Z 00009KT 08/M05 A30 RMK A01 T00811048  RH  040%=      5-min Rain = 0
KFAS 232350Z 01009KT 08/M05 A3001 RMK A01 T00791047  RH  041%=      5-min Rain = 0
KFAS 232355Z 01009KT 08/M04 A3001 RMK A01 T00781041  RH  043%=      5-min Rain = 0
KFAS 240000Z 02010KT 08/M04 A3001 RMK A01 T00751038  RH  045%=      5-min Rain = 0
KFAS 240005Z 02010KT 07/M04 A3001 RMK A01 T00721036  RH  046%=      5-min Rain = 0
KFAS 240010Z 01010KT 07/M04 A3001 RMK A01 T00691039  RH  046%=      5-min Rain = 0
KFAS 240015Z 02010KT 07/M04 A3001 RMK A01 T00661035  RH  048%=      5-min Rain = 0
KFAS 240020Z 03011KT 06/M03 A3001 RMK A01 T00621034  RH  050%=      5-min Rain = 0
KFAS 240025Z 03011KT 06/M04 A3002 RMK A01 T00571040  RH  050%=      5-min Rain = 0
KFAS 240030Z 03009KT 05/M04 A3002 RMK A01 T00521041  RH  051%=      5-min Rain = 0
KFAS 240035Z 03008KT 05/M04 A3002 RMK A01 T00471039  RH  054%=      5-min Rain = 0
KFAS 240040Z 03009KT 04/M04 A3002 RMK A01 T00421039  RH  056%=      5-min Rain = 0
KFAS 240045Z 03009KT 04/M04 A3003 RMK A01 T00371037  RH  059%=      5-min Rain = 0
KFAS 240050Z 03009KT 03/M03 A3003 RMK A01 T00341034  RH  061%=      5-min Rain = 0
KFAS 240055Z 04009KT 03/M03 A3003 RMK A01 T00321030  RH  064%=      5-min Rain = 0
KFAS 240100Z 04008KT 03/M03 A3003 RMK A01 T00271031  RH  066%=      5-min Rain = 0
KFAS 240105Z 04009KT 02/M03 A3003 RMK A01 T00241031  RH  067%=      5-min Rain = 0
KFAS 240110Z 04008KT 02/M03 A3003 RMK A01 T00241029  RH  068%=      5-min Rain = 0
KFAS 240115Z 05008KT 02/M03 A3004 RMK A01 T00201030  RH  070%=      5-min Rain = 0
KFAS 240120Z 05008KT 02/M03 A3004 RMK A01 T00181031  RH  071%=      5-min Rain = 0
KFAS 240125Z 05008KT 02/M03 A3005 RMK A01 T00151031  RH  072%=      5-min Rain = 0
KFAS 240130Z 05007KT 01/M03 A3005 RMK A01 T00131032  RH  073%=      5-min Rain = 0
KFAS 240135Z 06007KT 01/M03 A3006 RMK A01 T00101034  RH  073%=      5-min Rain = 0
KFAS 240140Z 06006KT 01/M04 A3007 RMK A01 T00071035  RH  074%=      5-min Rain = 0
KFAS 240145Z 06006KT 00/M04 A3007 RMK A01 T00031035  RH  076%=      5-min Rain = 0
KFAS 240150Z 06005KT 00/M04 A3008 RMK A01 T00021035  RH  076%=      5-min Rain = 0
KFAS 240155Z 05004KT 00/M04 A3009 RMK A01 T00011036  RH  077%=      5-min Rain = 0
KFAS 240200Z 05005KT 00/04 A3009 RMK A01 T00000-35  RH  077%=      5-min Rain = 0
KFAS 240205Z 06005KT 00/M04 A3009 RMK A01 T00011036  RH  077%=      5-min Rain = 0
KFAS 240210Z 06006KT 00/M04 A3009 RMK A01 T00011037  RH  076%=      5-min Rain = 0
KFAS 240215Z 05008KT 00/M04 A3009 RMK A01 T00021038  RH  075%=      5-min Rain = 0
KFAS 240220Z 05008KT 00/M04 A3009 RMK A01 T00011038  RH  076%=      5-min Rain = 0
KFAS 240225Z 07005KT M00/M04 A301 RMK A01 T10021040  RH  076%=      5-min Rain = 0
KFAS 240230Z 08004KT M01/M04 A301 RMK A01 T10051038  RH  078%=      5-min Rain = 0
KFAS 240235Z 08005KT M01/M04 A3011 RMK A01 T10061039  RH  079%=      5-min Rain = 0
KFAS 240240Z 09005KT M01/M04 A3011 RMK A01 T10091040  RH  080%=      5-min Rain = 0
KFAS 240245Z 07005KT M01/M04 A3011 RMK A01 T10111041  RH  081%=      5-min Rain = 0
KFAS 240250Z 07006KT M01/M04 A3011 RMK A01 T10141042  RH  082%=      5-min Rain = 0
KFAS 240255Z 07007KT M02/M04 A3011 RMK A01 T10151044  RH  081%=      5-min Rain = 0
KFAS 240300Z 07006KT M02/M05 A3012 RMK A01 T10171047  RH  080%=      5-min Rain = 0
KFAS 240305Z 07006KT M02/M05 A3013 RMK A01 T10171049  RH  079%=      5-min Rain = 0
KFAS 240310Z 07005KT M02/M05 A3013 RMK A01 T10161050  RH  078%=      5-min Rain = 0
KFAS 240315Z 09004KT M02/M05 A3013 RMK A01 T10151048  RH  078%=      5-min Rain = 0
KFAS 240320Z 08005KT M01/M05 A3014 RMK A01 T10131048  RH  077%=      5-min Rain = 0
KFAS 240325Z 08004KT M01/M05 A3014 RMK A01 T10141050  RH  076%=      5-min Rain = 0
KFAS 240330Z 09002KT M02/M05 A3014 RMK A01 T10151049  RH  078%=      5-min Rain = 0
KFAS 240335Z 08004KT M02/M05 A3014 RMK A01 T10191052  RH  078%=      5-min Rain = 0
KFAS 240340Z 07004KT M02/M05 A3015 RMK A01 T10171052  RH  077%=      5-min Rain = 0
KFAS 240345Z 07001KT M02/M06 A3015 RMK A01 T10221057  RH  077%=      5-min Rain = 0
KFAS 240350Z 12002KT M02/M05 A3015 RMK A01 T10241054  RH  080%=      5-min Rain = 0
KFAS 240355Z 06007KT M01/M06 A3015 RMK A01 T10131055  RH  073%=      5-min Rain = 0
KFAS 240400Z 06007KT M01/M06 A3015 RMK A01 T10111055  RH  073%=      5-min Rain = 0
KFAS 240405Z 06006KT M01/M06 A3016 RMK A01 T10091060  RH  068%=      5-min Rain = 0
KFAS 240410Z 07004KT M01/M06 A3016 RMK A01 T10081063  RH  067%=      5-min Rain = 0
KFAS 240415Z 11002KT M01/M06 A3016 RMK A01 T10101063  RH  067%=      5-min Rain = 0
KFAS 240420Z 09002KT M01/M07 A3016 RMK A01 T10071066  RH  064%=      5-min Rain = 0
KFAS 240425Z 05002KT M00/M07 A3017 RMK A01 T10041068  RH  062%=      5-min Rain = 0
KFAS 240430Z 04001KT M01/M07 A3017 RMK A01 T10091069  RH  064%=      5-min Rain = 0
KFAS 240435Z 07002KT M02/M07 A3017 RMK A01 T10161070  RH  066%=      5-min Rain = 0
KFAS 240440Z 08002KT M02/M07 A3018 RMK A01 T10151066  RH  069%=      5-min Rain = 0
KFAS 240445Z 09001KT M02/M07 A3018 RMK A01 T10161067  RH  068%=      5-min Rain = 0
KFAS 240450Z 09000KT M02/M07 A3018 RMK A01 T10201067  RH  070%=      5-min Rain = 0
KFAS 240455Z 09000KT M02/M07 A3018 RMK A01 T10231069  RH  071%=      5-min Rain = 0
KFAS 240500Z 00000KT M03/M07 A3019 RMK A01 T10251069  RH  072%=      5-min Rain = 0
KFAS 240505Z 33000KT M03/M06 A3019 RMK A01 T10261060  RH  078%=      5-min Rain = 0
KFAS 240510Z 33000KT M03/M06 A3019 RMK A01 T10301062  RH  079%=      5-min Rain = 0
KFAS 240515Z 33000KT M03/M06 A3019 RMK A01 T10301061  RH  080%=      5-min Rain = 0
KFAS 240520Z 01001KT M03/M06 A3019 RMK A01 T10271061  RH  077%=      5-min Rain = 0
KFAS 240525Z 00001KT M03/M07 A302 RMK A01 T10251066  RH  074%=      5-min Rain = 0
KFAS 240530Z 30001KT M03/M07 A302 RMK A01 T10331069  RH  076%=      5-min Rain = 0
KFAS 240535Z 27001KT M03/M06 A302 RMK A01 T10331064  RH  079%=      5-min Rain = 0
KFAS 240540Z 25001KT M03/M07 A302 RMK A01 T10331065  RH  079%=      5-min Rain = 0
KFAS 240545Z 25000KT M04/M06 A302 RMK A01 T10371060  RH  084%=      5-min Rain = 0
KFAS 240550Z 19001KT M04/M06 A302 RMK A01 T10361055  RH  087%=      5-min Rain = 0
KFAS 240555Z 20001KT M04/M05 A3021 RMK A01 T10361054  RH  088%=      5-min Rain = 0

Page generated in 0.0089 seconds.